sensor_id;sensor_type;location;lat;lon;timestamp;pressure;altitude;pressure_sealevel;temperature;humidity
55171;BME280;41060;47.510;8.680;2023-09-12T00:00:08;96749.47;;;27.09;40.97
55171;BME280;41060;47.510;8.680;2023-09-12T00:02:35;96757.31;;;26.76;41.42
55171;BME280;41060;47.510;8.680;2023-09-12T00:05:01;96753.00;;;26.57;41.67
55171;BME280;41060;47.510;8.680;2023-09-12T00:07:29;96758.94;;;26.35;42.13
55171;BME280;41060;47.510;8.680;2023-09-12T00:09:55;96753.81;;;26.45;41.59
55171;BME280;41060;47.510;8.680;2023-09-12T00:12:23;96722.38;;;26.38;41.68
55171;BME280;41060;47.510;8.680;2023-09-12T00:14:51;96755.28;;;26.71;41.64
55171;BME280;41060;47.510;8.680;2023-09-12T00:17:19;96745.97;;;26.79;41.45
55171;BME280;41060;47.510;8.680;2023-09-12T00:19:45;96752.47;;;26.78;41.29
55171;BME280;41060;47.510;8.680;2023-09-12T00:22:13;96751.56;;;26.84;41.21
55171;BME280;41060;47.510;8.680;2023-09-12T00:24:39;96752.84;;;26.81;41.52
55171;BME280;41060;47.510;8.680;2023-09-12T00:27:06;96744.31;;;26.78;41.51
55171;BME280;41060;47.510;8.680;2023-09-12T00:29:33;96750.94;;;26.82;41.12
55171;BME280;41060;47.510;8.680;2023-09-12T00:31:59;96749.66;;;26.84;40.75
55171;BME280;41060;47.510;8.680;2023-09-12T00:34:27;96752.16;;;26.86;41.01
55171;BME280;41060;47.510;8.680;2023-09-12T00:36:54;96742.50;;;26.90;41.05
55171;BME280;41060;47.510;8.680;2023-09-12T00:39:21;96748.38;;;26.87;41.29
55171;BME280;41060;47.510;8.680;2023-09-12T00:41:47;96729.69;;;26.79;41.42
55171;BME280;41060;47.510;8.680;2023-09-12T00:44:17;96744.59;;;26.88;41.03
55171;BME280;41060;47.510;8.680;2023-09-12T00:46:44;96746.94;;;26.84;41.25
55171;BME280;41060;47.510;8.680;2023-09-12T00:49:13;96747.56;;;26.87;41.43
55171;BME280;41060;47.510;8.680;2023-09-12T00:51:44;96740.69;;;26.84;41.04
55171;BME280;41060;47.510;8.680;2023-09-12T00:54:12;96738.66;;;26.79;41.46
55171;BME280;41060;47.510;8.680;2023-09-12T00:56:41;96736.28;;;26.71;41.04
55171;BME280;41060;47.510;8.680;2023-09-12T00:59:08;96737.09;;;26.72;41.42
55171;BME280;41060;47.510;8.680;2023-09-12T01:01:36;96737.09;;;26.72;41.39
55171;BME280;41060;47.510;8.680;2023-09-12T01:04:02;96731.22;;;26.75;41.66
55171;BME280;41060;47.510;8.680;2023-09-12T01:06:31;96733.44;;;26.78;41.60
55171;BME280;41060;47.510;8.680;2023-09-12T01:09:01;96726.38;;;26.77;41.47
55171;BME280;41060;47.510;8.680;2023-09-12T01:11:28;96735.00;;;26.74;41.40
55171;BME280;41060;47.510;8.680;2023-09-12T01:13:55;96737.09;;;26.72;41.13
55171;BME280;41060;47.510;8.680;2023-09-12T01:16:22;96740.84;;;26.59;41.92
55171;BME280;41060;47.510;8.680;2023-09-12T01:18:48;96744.72;;;26.52;41.74
55171;BME280;41060;47.510;8.680;2023-09-12T01:21:39;96757.41;;;26.10;42.19
55171;BME280;41060;47.510;8.680;2023-09-12T01:27:22;96762.28;;;25.03;44.37
55171;BME280;41060;47.510;8.680;2023-09-12T01:29:56;96765.94;;;24.84;44.96
55171;BME280;41060;47.510;8.680;2023-09-12T01:32:23;96767.50;;;24.98;44.72
55171;BME280;41060;47.510;8.680;2023-09-12T01:34:50;96757.72;;;25.22;43.64
55171;BME280;41060;47.510;8.680;2023-09-12T01:37:16;96762.34;;;25.40;43.88
55171;BME280;41060;47.510;8.680;2023-09-12T01:39:43;96758.44;;;25.54;43.25
55171;BME280;41060;47.510;8.680;2023-09-12T01:42:13;96752.94;;;25.60;42.83
55171;BME280;41060;47.510;8.680;2023-09-12T01:44:43;96757.28;;;25.68;42.47
55171;BME280;41060;47.510;8.680;2023-09-12T01:47:12;96760.19;;;25.66;42.53
55171;BME280;41060;47.510;8.680;2023-09-12T01:49:39;96763.09;;;25.72;42.70
55171;BME280;41060;47.510;8.680;2023-09-12T01:52:07;96756.00;;;25.71;42.46
55171;BME280;41060;47.510;8.680;2023-09-12T01:54:34;96764.06;;;25.77;42.45
55171;BME280;41060;47.510;8.680;2023-09-12T01:57:03;96766.06;;;25.82;42.24
55171;BME280;41060;47.510;8.680;2023-09-12T01:59:31;96776.47;;;25.85;42.43
55171;BME280;41060;47.510;8.680;2023-09-12T02:02:02;96769.69;;;25.94;42.27
55171;BME280;41060;47.510;8.680;2023-09-12T02:04:29;96767.13;;;25.99;41.88
55171;BME280;41060;47.510;8.680;2023-09-12T02:06:56;96770.91;;;25.98;42.17
55171;BME280;41060;47.510;8.680;2023-09-12T02:09:25;96767.56;;;25.96;42.58
55171;BME280;41060;47.510;8.680;2023-09-12T02:11:52;96774.06;;;25.95;42.15
55171;BME280;41060;47.510;8.680;2023-09-12T02:14:18;96769.41;;;25.84;41.96
55171;BME280;41060;47.510;8.680;2023-09-12T02:16:45;96776.72;;;25.65;41.91
55171;BME280;41060;47.510;8.680;2023-09-12T02:19:13;96769.97;;;25.06;43.71
55171;BME280;41060;47.510;8.680;2023-09-12T02:21:40;96780.75;;;25.13;43.32
55171;BME280;41060;47.510;8.680;2023-09-12T02:24:08;96769.84;;;25.19;43.04
55171;BME280;41060;47.510;8.680;2023-09-12T02:26:36;96770.81;;;25.25;43.11
55171;BME280;41060;47.510;8.680;2023-09-12T02:29:03;96776.56;;;25.35;42.83
55171;BME280;41060;47.510;8.680;2023-09-12T02:31:31;96765.28;;;25.38;42.43
55171;BME280;41060;47.510;8.680;2023-09-12T02:33:58;96774.78;;;25.47;42.51
55171;BME280;41060;47.510;8.680;2023-09-12T02:36:26;96758.28;;;25.49;42.00
55171;BME280;41060;47.510;8.680;2023-09-12T02:38:57;96763.34;;;25.63;42.27
55171;BME280;41060;47.510;8.680;2023-09-12T02:41:23;96766.06;;;25.63;42.45
55171;BME280;41060;47.510;8.680;2023-09-12T02:43:53;96760.25;;;25.60;42.15
55171;BME280;41060;47.510;8.680;2023-09-12T02:46:20;96757.06;;;25.69;42.52
55171;BME280;41060;47.510;8.680;2023-09-12T02:48:46;96757.66;;;25.72;41.95
55171;BME280;41060;47.510;8.680;2023-09-12T02:51:13;96757.19;;;25.75;42.25
55171;BME280;41060;47.510;8.680;2023-09-12T02:53:43;96764.34;;;25.69;41.98
55171;BME280;41060;47.510;8.680;2023-09-12T02:56:09;96770.34;;;25.10;42.98
55171;BME280;41060;47.510;8.680;2023-09-12T02:58:36;96775.97;;;25.08;43.32
55171;BME280;41060;47.510;8.680;2023-09-12T03:01:03;96766.78;;;25.09;43.12
55171;BME280;41060;47.510;8.680;2023-09-12T03:03:31;96776.19;;;25.07;42.75
55171;BME280;41060;47.510;8.680;2023-09-12T03:05:58;96773.28;;;24.77;43.57
55171;BME280;41060;47.510;8.680;2023-09-12T03:08:25;96771.22;;;24.41;44.24
55171;BME280;41060;47.510;8.680;2023-09-12T03:10:57;96768.72;;;24.46;44.32
55171;BME280;41060;47.510;8.680;2023-09-12T03:13:25;96680.06;;;24.10;44.03
55171;BME280;41060;47.510;8.680;2023-09-12T03:15:54;96763.25;;;24.77;43.86
55171;BME280;41060;47.510;8.680;2023-09-12T03:18:20;96768.41;;;24.85;43.55
55171;BME280;41060;47.510;8.680;2023-09-12T03:20:49;96769.91;;;24.81;43.64
55171;BME280;41060;47.510;8.680;2023-09-12T03:23:16;96765.34;;;24.82;43.61
55171;BME280;41060;47.510;8.680;2023-09-12T03:25:45;96765.94;;;24.84;43.55
55171;BME280;41060;47.510;8.680;2023-09-12T03:28:13;96756.38;;;24.81;43.70
55171;BME280;41060;47.510;8.680;2023-09-12T03:30:40;96766.13;;;24.89;45.58
55171;BME280;41060;47.510;8.680;2023-09-12T03:33:07;96761.91;;;24.93;45.77
55171;BME280;41060;47.510;8.680;2023-09-12T03:35:34;96761.25;;;24.98;45.11
55171;BME280;41060;47.510;8.680;2023-09-12T03:38:04;96764.53;;;25.00;45.36
55171;BME280;41060;47.510;8.680;2023-09-12T03:40:31;96742.56;;;24.89;44.77
55171;BME280;41060;47.510;8.680;2023-09-12T03:42:58;96757.50;;;24.99;43.99
55171;BME280;41060;47.510;8.680;2023-09-12T03:45:26;96752.09;;;24.99;44.69
55171;BME280;41060;47.510;8.680;2023-09-12T03:47:55;96751.63;;;25.02;44.57
55171;BME280;41060;47.510;8.680;2023-09-12T03:50:25;96752.91;;;24.99;44.47
55171;BME280;41060;47.510;8.680;2023-09-12T03:52:52;96756.66;;;24.98;44.18
55171;BME280;41060;47.510;8.680;2023-09-12T03:55:19;96752.28;;;24.97;44.03
55171;BME280;41060;47.510;8.680;2023-09-12T03:57:45;96757.31;;;24.93;43.95
55171;BME280;41060;47.510;8.680;2023-09-12T04:00:13;96754.03;;;24.91;43.66
55171;BME280;41060;47.510;8.680;2023-09-12T04:02:41;96749.03;;;24.88;43.72
55171;BME280;41060;47.510;8.680;2023-09-12T04:05:08;96748.81;;;24.90;43.64
55171;BME280;41060;47.510;8.680;2023-09-12T04:07:36;96749.09;;;24.82;43.95
55171;BME280;41060;47.510;8.680;2023-09-12T04:10:02;96750.13;;;24.81;43.86
55171;BME280;41060;47.510;8.680;2023-09-12T04:12:29;96755.16;;;24.77;43.31
55171;BME280;41060;47.510;8.680;2023-09-12T04:14:56;96758.94;;;24.76;43.15
55171;BME280;41060;47.510;8.680;2023-09-12T04:17:23;96749.91;;;24.82;43.50
55171;BME280;41060;47.510;8.680;2023-09-12T04:19:51;96757.00;;;24.83;43.30
55171;BME280;41060;47.510;8.680;2023-09-12T04:22:18;96757.44;;;24.80;43.48
55171;BME280;41060;47.510;8.680;2023-09-12T04:24:45;96745.59;;;24.75;43.46
55171;BME280;41060;47.510;8.680;2023-09-12T04:27:11;96755.59;;;24.74;43.61
55171;BME280;41060;47.510;8.680;2023-09-12T04:29:40;96756.03;;;24.71;43.61
55171;BME280;41060;47.510;8.680;2023-09-12T04:32:07;96754.88;;;24.23;44.50
55171;BME280;41060;47.510;8.680;2023-09-12T04:34:34;96757.13;;;23.88;44.69
55171;BME280;41060;47.510;8.680;2023-09-12T04:37:02;96755.69;;;23.72;45.63
55171;BME280;41060;47.510;8.680;2023-09-12T04:39:30;96766.38;;;23.40;46.17
55171;BME280;41060;47.510;8.680;2023-09-12T04:41:57;96757.63;;;23.45;46.38
55171;BME280;41060;47.510;8.680;2023-09-12T04:44:24;96762.56;;;23.68;45.89
55171;BME280;41060;47.510;8.680;2023-09-12T04:46:51;96765.56;;;23.27;46.41
55171;BME280;41060;47.510;8.680;2023-09-12T04:49:17;96773.06;;;23.18;47.26
55171;BME280;41060;47.510;8.680;2023-09-12T04:51:44;96771.16;;;23.32;46.84
55171;BME280;41060;47.510;8.680;2023-09-12T04:54:12;96770.09;;;23.53;46.32
55171;BME280;41060;47.510;8.680;2023-09-12T04:56:38;96766.09;;;23.68;45.91
55171;BME280;41060;47.510;8.680;2023-09-12T04:59:06;96774.81;;;23.70;45.85
55171;BME280;41060;47.510;8.680;2023-09-12T05:01:33;96769.00;;;23.80;45.62
55171;BME280;41060;47.510;8.680;2023-09-12T05:03:59;96704.63;;;23.51;45.40
55171;BME280;41060;47.510;8.680;2023-09-12T05:06:26;96777.22;;;24.05;44.66
55171;BME280;41060;47.510;8.680;2023-09-12T05:08:53;96783.16;;;24.20;44.70
55171;BME280;41060;47.510;8.680;2023-09-12T05:11:21;96777.69;;;24.33;44.08
55171;BME280;41060;47.510;8.680;2023-09-12T05:13:48;96741.97;;;24.18;43.82
55171;BME280;41060;47.510;8.680;2023-09-12T05:16:15;96776.44;;;24.36;44.31
55171;BME280;41060;47.510;8.680;2023-09-12T05:18:41;96780.41;;;24.40;44.31
55171;BME280;41060;47.510;8.680;2023-09-12T05:21:09;96757.91;;;24.33;44.34
55171;BME280;41060;47.510;8.680;2023-09-12T05:23:35;96776.22;;;24.44;44.05
55171;BME280;41060;47.510;8.680;2023-09-12T05:26:02;96773.72;;;24.42;43.86
55171;BME280;41060;47.510;8.680;2023-09-12T05:28:31;96782.47;;;24.44;44.05
55171;BME280;41060;47.510;8.680;2023-09-12T05:30:57;96769.53;;;24.46;43.97
55171;BME280;41060;47.510;8.680;2023-09-12T05:33:24;96782.81;;;24.54;43.91
55171;BME280;41060;47.510;8.680;2023-09-12T05:35:51;96776.78;;;24.52;43.93
55171;BME280;41060;47.510;8.680;2023-09-12T05:38:20;96786.72;;;24.21;44.35
55171;BME280;41060;47.510;8.680;2023-09-12T05:40:47;96788.38;;;23.64;45.52
55171;BME280;41060;47.510;8.680;2023-09-12T05:43:15;96785.09;;;23.29;46.56
55171;BME280;41060;47.510;8.680;2023-09-12T05:45:43;96785.69;;;23.44;46.60
55171;BME280;41060;47.510;8.680;2023-09-12T05:48:10;96788.03;;;23.27;46.78
55171;BME280;41060;47.510;8.680;2023-09-12T05:50:37;96794.47;;;23.20;47.14
55171;BME280;41060;47.510;8.680;2023-09-12T05:53:04;96795.88;;;22.83;48.19
55171;BME280;41060;47.510;8.680;2023-09-12T05:55:30;96786.31;;;22.67;48.39
55171;BME280;41060;47.510;8.680;2023-09-12T05:57:57;96787.75;;;22.56;49.01
55171;BME280;41060;47.510;8.680;2023-09-12T06:00:24;96790.25;;;22.78;48.41
55171;BME280;41060;47.510;8.680;2023-09-12T06:02:52;96791.53;;;22.88;48.67
55171;BME280;41060;47.510;8.680;2023-09-12T06:05:19;96797.53;;;22.77;49.09
55171;BME280;41060;47.510;8.680;2023-09-12T06:07:46;96801.91;;;22.91;48.56
55171;BME280;41060;47.510;8.680;2023-09-12T06:10:12;96798.78;;;23.08;48.41
55171;BME280;41060;47.510;8.680;2023-09-12T06:12:39;96801.06;;;22.84;49.35
55171;BME280;41060;47.510;8.680;2023-09-12T06:15:06;96800.25;;;22.90;48.64
55171;BME280;41060;47.510;8.680;2023-09-12T06:17:33;96799.03;;;23.19;48.23
55171;BME280;41060;47.510;8.680;2023-09-12T06:20:08;96801.88;;;23.44;47.49
55171;BME280;41060;47.510;8.680;2023-09-12T06:22:35;96809.00;;;23.19;48.28
55171;BME280;41060;47.510;8.680;2023-09-12T06:25:02;96808.16;;;22.98;48.59
55171;BME280;41060;47.510;8.680;2023-09-12T06:27:29;96801.09;;;23.17;48.42
55171;BME280;41060;47.510;8.680;2023-09-12T06:29:56;96799.44;;;23.36;48.31
55171;BME280;41060;47.510;8.680;2023-09-12T06:32:25;96801.47;;;23.01;49.07
55171;BME280;41060;47.510;8.680;2023-09-12T06:34:52;96804.00;;;22.83;49.47
55171;BME280;41060;47.510;8.680;2023-09-12T06:37:20;96803.81;;;23.11;48.90
55171;BME280;41060;47.510;8.680;2023-09-12T06:39:49;96771.78;;;22.81;49.51
55171;BME280;41060;47.510;8.680;2023-09-12T06:42:16;96779.91;;;22.75;49.89
55171;BME280;41060;47.510;8.680;2023-09-12T06:44:43;96808.56;;;22.89;49.73
55171;BME280;41060;47.510;8.680;2023-09-12T06:47:09;96811.44;;;22.87;50.06
55171;BME280;41060;47.510;8.680;2023-09-12T06:49:36;96806.25;;;22.86;50.00
55171;BME280;41060;47.510;8.680;2023-09-12T06:52:04;96814.59;;;23.17;49.03
55171;BME280;41060;47.510;8.680;2023-09-12T06:54:33;96804.59;;;23.37;48.55
55171;BME280;41060;47.510;8.680;2023-09-12T06:57:00;96808.97;;;23.38;48.69
55171;BME280;41060;47.510;8.680;2023-09-12T06:59:26;96806.50;;;23.17;49.30
55171;BME280;41060;47.510;8.680;2023-09-12T07:01:53;96811.06;;;22.97;50.02
55171;BME280;41060;47.510;8.680;2023-09-12T07:04:20;96797.13;;;22.74;50.37
55171;BME280;41060;47.510;8.680;2023-09-12T07:06:46;96812.91;;;22.83;50.55
55171;BME280;41060;47.510;8.680;2023-09-12T07:09:13;96814.97;;;22.61;51.32
55171;BME280;41060;47.510;8.680;2023-09-12T07:11:42;96803.75;;;22.84;50.59
55171;BME280;41060;47.510;8.680;2023-09-12T07:14:08;96799.22;;;23.31;49.32
55171;BME280;41060;47.510;8.680;2023-09-12T07:16:35;96809.75;;;23.72;48.41
55171;BME280;41060;47.510;8.680;2023-09-12T07:19:02;96810.59;;;23.72;48.48
55171;BME280;41060;47.510;8.680;2023-09-12T07:21:29;96810.00;;;23.44;49.27
55171;BME280;41060;47.510;8.680;2023-09-12T07:23:55;96813.06;;;23.67;48.88
55171;BME280;41060;47.510;8.680;2023-09-12T07:26:22;96820.34;;;23.87;48.40
55171;BME280;41060;47.510;8.680;2023-09-12T07:28:50;96819.28;;;23.74;49.14
55171;BME280;41060;47.510;8.680;2023-09-12T07:31:17;96822.25;;;23.60;49.46
55171;BME280;41060;47.510;8.680;2023-09-12T07:33:44;96824.78;;;23.35;50.78
55171;BME280;41060;47.510;8.680;2023-09-12T07:36:13;96821.44;;;23.39;50.66
55171;BME280;41060;47.510;8.680;2023-09-12T07:38:39;96819.16;;;23.30;51.20
55171;BME280;41060;47.510;8.680;2023-09-12T07:41:07;96812.94;;;23.43;50.78
55171;BME280;41060;47.510;8.680;2023-09-12T07:43:34;96782.75;;;23.52;50.32
55171;BME280;41060;47.510;8.680;2023-09-12T07:46:02;96822.22;;;23.73;50.09
55171;BME280;41060;47.510;8.680;2023-09-12T07:48:29;96822.03;;;23.68;50.67
55171;BME280;41060;47.510;8.680;2023-09-12T07:50:55;96825.88;;;24.05;50.52
55171;BME280;41060;47.510;8.680;2023-09-12T07:53:22;96827.41;;;24.45;49.31
55171;BME280;41060;47.510;8.680;2023-09-12T07:55:49;96828.03;;;24.79;47.39
55171;BME280;41060;47.510;8.680;2023-09-12T07:58:17;96830.63;;;24.67;48.15
55171;BME280;41060;47.510;8.680;2023-09-12T08:00:44;96825.53;;;24.77;47.30
55171;BME280;41060;47.510;8.680;2023-09-12T08:03:13;96822.66;;;24.72;47.46
55171;BME280;41060;47.510;8.680;2023-09-12T08:05:40;96817.19;;;24.79;48.03
55171;BME280;41060;47.510;8.680;2023-09-12T08:08:06;96821.09;;;24.89;47.77
55171;BME280;41060;47.510;8.680;2023-09-12T08:10:33;96823.63;;;24.84;47.54
55171;BME280;41060;47.510;8.680;2023-09-12T08:13:00;96825.00;;;24.93;47.43
55171;BME280;41060;47.510;8.680;2023-09-12T08:15:26;96812.34;;;24.87;48.01
55171;BME280;41060;47.510;8.680;2023-09-12T08:17:54;96813.19;;;24.88;47.51
55171;BME280;41060;47.510;8.680;2023-09-12T08:20:22;96823.59;;;24.91;47.12
55171;BME280;41060;47.510;8.680;2023-09-12T08:22:48;96828.56;;;24.94;46.81
55171;BME280;41060;47.510;8.680;2023-09-12T08:25:16;96830.16;;;25.08;46.70
55171;BME280;41060;47.510;8.680;2023-09-12T08:27:42;96821.47;;;25.24;46.54
55171;BME280;41060;47.510;8.680;2023-09-12T08:30:10;96819.31;;;25.33;46.77
55171;BME280;41060;47.510;8.680;2023-09-12T08:32:38;96819.59;;;25.25;46.93
55171;BME280;41060;47.510;8.680;2023-09-12T08:35:09;96819.09;;;25.35;46.83
55171;BME280;41060;47.510;8.680;2023-09-12T08:37:37;96795.53;;;25.35;46.77
55171;BME280;41060;47.510;8.680;2023-09-12T08:40:06;96813.56;;;25.73;46.41
55171;BME280;41060;47.510;8.680;2023-09-12T08:42:39;96804.97;;;25.94;46.24
55171;BME280;41060;47.510;8.680;2023-09-12T08:45:11;96799.59;;;26.05;45.16
55171;BME280;41060;47.510;8.680;2023-09-12T08:47:41;96812.16;;;26.18;45.94
55171;BME280;41060;47.510;8.680;2023-09-12T08:50:10;96802.31;;;26.24;45.88
55171;BME280;41060;47.510;8.680;2023-09-12T08:52:40;96799.19;;;26.20;45.80
55171;BME280;41060;47.510;8.680;2023-09-12T08:55:08;96797.44;;;26.32;45.87
55171;BME280;41060;47.510;8.680;2023-09-12T08:57:36;96801.88;;;26.57;46.16
55171;BME280;41060;47.510;8.680;2023-09-12T09:00:05;96802.28;;;26.72;45.37
55171;BME280;41060;47.510;8.680;2023-09-12T09:02:34;96799.44;;;26.97;45.57
55171;BME280;41060;47.510;8.680;2023-09-12T09:05:02;96793.16;;;26.96;44.84
55171;BME280;41060;47.510;8.680;2023-09-12T09:07:31;96784.56;;;26.99;44.28
55171;BME280;41060;47.510;8.680;2023-09-12T09:10:01;96787.41;;;27.04;44.06
55171;BME280;41060;47.510;8.680;2023-09-12T09:12:29;96785.75;;;27.03;43.68
55171;BME280;41060;47.510;8.680;2023-09-12T09:14:55;96785.16;;;27.25;44.05
55171;BME280;41060;47.510;8.680;2023-09-12T09:17:23;96776.81;;;27.49;43.40
55171;BME280;41060;47.510;8.680;2023-09-12T09:19:49;96781.63;;;27.59;43.16
55171;BME280;41060;47.510;8.680;2023-09-12T09:22:16;96780.72;;;27.65;43.15
55171;BME280;41060;47.510;8.680;2023-09-12T09:24:43;96763.63;;;27.81;43.12
55171;BME280;41060;47.510;8.680;2023-09-12T09:27:32;96766.59;;;27.91;42.59
55171;BME280;41060;47.510;8.680;2023-09-12T09:29:59;96765.38;;;28.11;42.49
55171;BME280;41060;47.510;8.680;2023-09-12T09:32:26;96769.88;;;28.05;41.88
55171;BME280;41060;47.510;8.680;2023-09-12T09:34:52;96777.34;;;28.10;41.53
55171;BME280;41060;47.510;8.680;2023-09-12T09:37:20;96773.28;;;28.24;40.72
55171;BME280;41060;47.510;8.680;2023-09-12T09:39:49;96773.22;;;28.35;41.00
55171;BME280;41060;47.510;8.680;2023-09-12T09:42:18;96772.97;;;28.37;40.56
55171;BME280;41060;47.510;8.680;2023-09-12T09:44:47;96769.19;;;28.38;40.93
55171;BME280;41060;47.510;8.680;2023-09-12T09:47:14;96762.03;;;28.49;40.68
55171;BME280;41060;47.510;8.680;2023-09-12T09:49:40;96769.22;;;28.66;40.81
55171;BME280;41060;47.510;8.680;2023-09-12T09:52:07;96760.91;;;28.90;39.23
55171;BME280;41060;47.510;8.680;2023-09-12T09:54:43;96765.84;;;28.93;39.99
55171;BME280;41060;47.510;8.680;2023-09-12T09:57:10;96771.81;;;29.06;39.37
55171;BME280;41060;47.510;8.680;2023-09-12T09:59:38;96765.44;;;28.84;38.29
55171;BME280;41060;47.510;8.680;2023-09-12T10:02:07;96769.97;;;28.95;39.19
55171;BME280;41060;47.510;8.680;2023-09-12T10:04:43;96774.97;;;29.15;38.68
55171;BME280;41060;47.510;8.680;2023-09-12T10:07:13;96775.78;;;29.32;37.95
55171;BME280;41060;47.510;8.680;2023-09-12T10:09:43;96768.03;;;29.24;39.17
55171;BME280;41060;47.510;8.680;2023-09-12T10:12:10;96771.59;;;29.25;40.02
55171;BME280;41060;47.510;8.680;2023-09-12T10:14:39;96772.31;;;29.37;40.62
55171;BME280;41060;47.510;8.680;2023-09-12T10:17:08;96767.03;;;29.47;40.20
55171;BME280;41060;47.510;8.680;2023-09-12T10:19:39;96766.66;;;29.60;38.60
55171;BME280;41060;47.510;8.680;2023-09-12T10:22:11;96753.78;;;29.72;38.62
55171;BME280;41060;47.510;8.680;2023-09-12T10:24:39;96753.72;;;29.89;38.29
55171;BME280;41060;47.510;8.680;2023-09-12T10:27:09;96741.47;;;29.92;36.93
55171;BME280;41060;47.510;8.680;2023-09-12T10:29:38;96744.88;;;30.04;36.45
55171;BME280;41060;47.510;8.680;2023-09-12T10:32:05;96740.38;;;30.14;35.14
55171;BME280;41060;47.510;8.680;2023-09-12T10:34:34;96742.38;;;30.19;35.51
55171;BME280;41060;47.510;8.680;2023-09-12T10:37:03;96740.53;;;30.24;36.03
55171;BME280;41060;47.510;8.680;2023-09-12T10:39:31;96737.28;;;30.28;36.55
55171;BME280;41060;47.510;8.680;2023-09-12T10:41:59;96735.59;;;30.48;34.92
55171;BME280;41060;47.510;8.680;2023-09-12T10:44:25;96738.53;;;30.42;35.18
55171;BME280;41060;47.510;8.680;2023-09-12T10:46:53;96733.66;;;30.44;35.00
55171;BME280;41060;47.510;8.680;2023-09-12T10:49:21;96730.34;;;30.42;33.42
55171;BME280;41060;47.510;8.680;2023-09-12T10:51:49;96729.72;;;30.61;33.52
55171;BME280;41060;47.510;8.680;2023-09-12T10:54:22;96697.19;;;30.60;32.18
55171;BME280;41060;47.510;8.680;2023-09-12T10:57:02;96724.63;;;30.70;33.36
55171;BME280;41060;47.510;8.680;2023-09-12T10:59:29;96715.34;;;30.71;32.68
55171;BME280;41060;47.510;8.680;2023-09-12T11:02:28;96715.81;;;30.90;31.17
55171;BME280;41060;47.510;8.680;2023-09-12T11:04:55;96712.84;;;30.96;31.39
55171;BME280;41060;47.510;8.680;2023-09-12T11:07:44;96688.94;;;31.14;32.23
55171;BME280;41060;47.510;8.680;2023-09-12T11:10:19;96686.38;;;31.39;30.46
55171;BME280;41060;47.510;8.680;2023-09-12T11:12:47;96695.63;;;31.75;31.63
55171;BME280;41060;47.510;8.680;2023-09-12T11:15:14;96698.94;;;31.82;28.72
55171;BME280;41060;47.510;8.680;2023-09-12T11:17:47;96695.06;;;31.73;27.55
55171;BME280;41060;47.510;8.680;2023-09-12T11:20:16;96683.84;;;31.74;27.39
55171;BME280;41060;47.510;8.680;2023-09-12T11:22:44;96695.34;;;31.76;29.40
55171;BME280;41060;47.510;8.680;2023-09-12T11:25:18;96665.13;;;31.51;29.12
55171;BME280;41060;47.510;8.680;2023-09-12T11:28:04;96690.13;;;31.75;28.05
55171;BME280;41060;47.510;8.680;2023-09-12T11:30:31;96692.00;;;31.64;28.91
55171;BME280;41060;47.510;8.680;2023-09-12T11:33:04;96690.19;;;31.80;28.51
55171;BME280;41060;47.510;8.680;2023-09-12T11:35:36;96688.22;;;31.75;29.27
55171;BME280;41060;47.510;8.680;2023-09-12T11:38:09;96691.09;;;32.11;29.57
55171;BME280;41060;47.510;8.680;2023-09-12T11:40:43;96684.38;;;32.39;29.17
55171;BME280;41060;47.510;8.680;2023-09-12T11:43:20;96691.72;;;32.28;29.65
55171;BME280;41060;47.510;8.680;2023-09-12T11:45:49;96681.88;;;32.37;30.14
55171;BME280;41060;47.510;8.680;2023-09-12T11:48:18;96675.88;;;32.40;30.20
55171;BME280;41060;47.510;8.680;2023-09-12T11:50:50;96680.84;;;32.74;28.88
55171;BME280;41060;47.510;8.680;2023-09-12T11:53:20;96683.03;;;33.02;29.50
55171;BME280;41060;47.510;8.680;2023-09-12T11:55:49;96678.13;;;33.14;28.95
55171;BME280;41060;47.510;8.680;2023-09-12T11:58:17;96673.19;;;32.86;28.31
55171;BME280;41060;47.510;8.680;2023-09-12T12:00:45;96680.06;;;32.83;29.89
55171;BME280;41060;47.510;8.680;2023-09-12T12:03:13;96666.59;;;33.02;28.68
55171;BME280;41060;47.510;8.680;2023-09-12T12:05:41;96675.34;;;33.35;28.52
55171;BME280;41060;47.510;8.680;2023-09-12T12:08:08;96673.91;;;33.52;28.81
55171;BME280;41060;47.510;8.680;2023-09-12T12:10:35;96670.88;;;33.69;28.21
55171;BME280;41060;47.510;8.680;2023-09-12T12:13:03;96667.28;;;33.79;27.75
55171;BME280;41060;47.510;8.680;2023-09-12T12:15:30;96659.34;;;33.72;27.88
55171;BME280;41060;47.510;8.680;2023-09-12T12:17:57;96663.22;;;33.56;27.86
55171;BME280;41060;47.510;8.680;2023-09-12T12:20:24;96654.44;;;33.59;27.29
55171;BME280;41060;47.510;8.680;2023-09-12T12:22:52;96659.38;;;33.52;27.49
55171;BME280;41060;47.510;8.680;2023-09-12T12:25:19;96657.97;;;33.59;28.01
55171;BME280;41060;47.510;8.680;2023-09-12T12:27:45;96660.50;;;33.51;26.34
55171;BME280;41060;47.510;8.680;2023-09-12T12:30:13;96643.44;;;33.69;27.23
55171;BME280;41060;47.510;8.680;2023-09-12T12:32:40;96641.78;;;33.73;26.26
55171;BME280;41060;47.510;8.680;2023-09-12T12:35:17;96643.22;;;33.40;26.33
55171;BME280;41060;47.510;8.680;2023-09-12T12:37:44;96609.84;;;32.98;26.34
55171;BME280;41060;47.510;8.680;2023-09-12T12:40:13;96640.78;;;33.08;26.16
55171;BME280;41060;47.510;8.680;2023-09-12T12:42:40;96638.63;;;32.95;26.32
55171;BME280;41060;47.510;8.680;2023-09-12T12:45:11;96651.50;;;32.95;26.26
55171;BME280;41060;47.510;8.680;2023-09-12T12:47:38;96645.19;;;33.04;26.49
55171;BME280;41060;47.510;8.680;2023-09-12T12:50:07;96635.06;;;33.05;26.98
55171;BME280;41060;47.510;8.680;2023-09-12T12:52:34;96633.69;;;33.12;26.64
55171;BME280;41060;47.510;8.680;2023-09-12T12:55:06;96611.44;;;33.09;27.33
55171;BME280;41060;47.510;8.680;2023-09-12T12:57:37;96636.44;;;33.02;26.00
55171;BME280;41060;47.510;8.680;2023-09-12T13:00:08;96637.00;;;32.99;26.26
55171;BME280;41060;47.510;8.680;2023-09-12T13:02:36;96628.75;;;33.04;26.81
55171;BME280;41060;47.510;8.680;2023-09-12T13:05:03;96626.00;;;32.94;28.29
55171;BME280;41060;47.510;8.680;2023-09-12T13:07:33;96576.16;;;32.62;27.58